sensor_id;sensor_type;location;lat;lon;timestamp;P1;durP1;ratioP1;P2;durP2;ratioP2
21721;SDS011;11023;48.274;7.794;2023-06-10T00:00:42;4.45;;;3.90;;
21721;SDS011;11023;48.274;7.794;2023-06-10T00:03:09;5.70;;;4.30;;
21721;SDS011;11023;48.274;7.794;2023-06-10T00:05:35;7.20;;;3.92;;
21721;SDS011;11023;48.274;7.794;2023-06-10T00:08:03;3.83;;;3.45;;
21721;SDS011;11023;48.274;7.794;2023-06-10T00:10:38;5.53;;;3.60;;
21721;SDS011;11023;48.274;7.794;2023-06-10T00:13:05;5.03;;;3.80;;
21721;SDS011;11023;48.274;7.794;2023-06-10T00:15:34;6.35;;;4.30;;
21721;SDS011;11023;48.274;7.794;2023-06-10T00:18:03;5.78;;;3.90;;
21721;SDS011;11023;48.274;7.794;2023-06-10T00:20:30;6.15;;;4.20;;
21721;SDS011;11023;48.274;7.794;2023-06-10T00:22:57;5.97;;;4.18;;
21721;SDS011;11023;48.274;7.794;2023-06-10T00:25:24;9.68;;;4.40;;
21721;SDS011;11023;48.274;7.794;2023-06-10T00:27:51;5.28;;;3.80;;
21721;SDS011;11023;48.274;7.794;2023-06-10T00:30:17;6.07;;;4.20;;
21721;SDS011;11023;48.274;7.794;2023-06-10T00:32:43;5.20;;;4.30;;
21721;SDS011;11023;48.274;7.794;2023-06-10T00:35:08;4.78;;;4.28;;
21721;SDS011;11023;48.274;7.794;2023-06-10T00:37:35;5.00;;;4.15;;
21721;SDS011;11023;48.274;7.794;2023-06-10T00:40:02;4.47;;;4.07;;
21721;SDS011;11023;48.274;7.794;2023-06-10T00:42:28;5.55;;;4.00;;
21721;SDS011;11023;48.274;7.794;2023-06-10T00:44:54;7.18;;;4.15;;
21721;SDS011;11023;48.274;7.794;2023-06-10T00:47:21;7.13;;;4.30;;
21721;SDS011;11023;48.274;7.794;2023-06-10T00:49:47;5.63;;;4.05;;
21721;SDS011;11023;48.274;7.794;2023-06-10T00:52:15;5.55;;;4.80;;
21721;SDS011;11023;48.274;7.794;2023-06-10T00:54:44;7.70;;;4.80;;
21721;SDS011;11023;48.274;7.794;2023-06-10T00:57:10;9.63;;;5.28;;
21721;SDS011;11023;48.274;7.794;2023-06-10T00:59:39;6.70;;;4.78;;
21721;SDS011;11023;48.274;7.794;2023-06-10T01:02:06;6.50;;;4.82;;
21721;SDS011;11023;48.274;7.794;2023-06-10T01:04:32;7.05;;;4.78;;
21721;SDS011;11023;48.274;7.794;2023-06-10T01:14:53;5.40;;;4.70;;
21721;SDS011;11023;48.274;7.794;2023-06-10T01:17:20;6.32;;;4.63;;
21721;SDS011;11023;48.274;7.794;2023-06-10T01:19:55;6.15;;;4.93;;
21721;SDS011;11023;48.274;7.794;2023-06-10T01:22:25;6.45;;;4.53;;
21721;SDS011;11023;48.274;7.794;2023-06-10T01:24:57;6.78;;;4.53;;
21721;SDS011;11023;48.274;7.794;2023-06-10T01:27:26;5.63;;;4.38;;
21721;SDS011;11023;48.274;7.794;2023-06-10T01:29:58;6.75;;;4.43;;
21721;SDS011;11023;48.274;7.794;2023-06-10T01:32:30;6.63;;;5.00;;
21721;SDS011;11023;48.274;7.794;2023-06-10T01:34:59;6.75;;;4.57;;
21721;SDS011;11023;48.274;7.794;2023-06-10T01:37:26;5.00;;;4.47;;
21721;SDS011;11023;48.274;7.794;2023-06-10T01:39:55;6.50;;;4.15;;
21721;SDS011;11023;48.274;7.794;2023-06-10T01:42:23;5.43;;;4.32;;
21721;SDS011;11023;48.274;7.794;2023-06-10T01:44:49;4.85;;;4.10;;
21721;SDS011;11023;48.274;7.794;2023-06-10T01:47:15;5.25;;;4.53;;
21721;SDS011;11023;48.274;7.794;2023-06-10T01:49:41;5.40;;;4.30;;
21721;SDS011;11023;48.274;7.794;2023-06-10T01:52:07;5.00;;;4.40;;
21721;SDS011;11023;48.274;7.794;2023-06-10T01:54:33;5.28;;;4.28;;
21721;SDS011;11023;48.274;7.794;2023-06-10T01:56:59;8.57;;;4.75;;
21721;SDS011;11023;48.274;7.794;2023-06-10T01:59:26;5.07;;;4.38;;
21721;SDS011;11023;48.274;7.794;2023-06-10T02:01:52;5.55;;;4.60;;
21721;SDS011;11023;48.274;7.794;2023-06-10T02:04:17;5.45;;;4.57;;
21721;SDS011;11023;48.274;7.794;2023-06-10T02:06:43;6.13;;;3.97;;
21721;SDS011;11023;48.274;7.794;2023-06-10T02:09:10;7.13;;;4.30;;
21721;SDS011;11023;48.274;7.794;2023-06-10T02:11:36;5.22;;;4.38;;
21721;SDS011;11023;48.274;7.794;2023-06-10T02:14:01;6.28;;;4.65;;
21721;SDS011;11023;48.274;7.794;2023-06-10T02:16:27;4.75;;;4.25;;
21721;SDS011;11023;48.274;7.794;2023-06-10T02:18:53;5.20;;;4.65;;
21721;SDS011;11023;48.274;7.794;2023-06-10T02:21:19;7.85;;;4.75;;
21721;SDS011;11023;48.274;7.794;2023-06-10T02:23:45;7.55;;;4.90;;
21721;SDS011;11023;48.274;7.794;2023-06-10T02:26:11;5.28;;;4.78;;
21721;SDS011;11023;48.274;7.794;2023-06-10T02:28:36;7.55;;;5.00;;
21721;SDS011;11023;48.274;7.794;2023-06-10T02:31:02;6.10;;;4.10;;
21721;SDS011;11023;48.274;7.794;2023-06-10T02:33:28;5.53;;;4.93;;
21721;SDS011;11023;48.274;7.794;2023-06-10T02:35:53;6.45;;;5.00;;
21721;SDS011;11023;48.274;7.794;2023-06-10T02:38:20;9.25;;;4.85;;
21721;SDS011;11023;48.274;7.794;2023-06-10T02:40:46;4.97;;;4.50;;
21721;SDS011;11023;48.274;7.794;2023-06-10T02:43:11;5.32;;;4.82;;
21721;SDS011;11023;48.274;7.794;2023-06-10T02:45:37;5.72;;;4.70;;
21721;SDS011;11023;48.274;7.794;2023-06-10T02:48:04;6.15;;;4.88;;
21721;SDS011;11023;48.274;7.794;2023-06-10T02:50:30;5.57;;;4.60;;
21721;SDS011;11023;48.274;7.794;2023-06-10T02:52:55;7.32;;;5.30;;
21721;SDS011;11023;48.274;7.794;2023-06-10T02:55:21;6.45;;;4.70;;
21721;SDS011;11023;48.274;7.794;2023-06-10T02:57:47;5.50;;;4.80;;
21721;SDS011;11023;48.274;7.794;2023-06-10T03:00:12;7.88;;;5.15;;
21721;SDS011;11023;48.274;7.794;2023-06-10T03:02:39;6.43;;;5.18;;
21721;SDS011;11023;48.274;7.794;2023-06-10T03:05:05;5.85;;;4.82;;
21721;SDS011;11023;48.274;7.794;2023-06-10T03:07:35;6.28;;;4.78;;
21721;SDS011;11023;48.274;7.794;2023-06-10T03:10:01;6.28;;;4.90;;
21721;SDS011;11023;48.274;7.794;2023-06-10T03:12:27;6.85;;;4.95;;
21721;SDS011;11023;48.274;7.794;2023-06-10T03:14:52;6.70;;;5.20;;
21721;SDS011;11023;48.274;7.794;2023-06-10T03:17:18;6.05;;;5.38;;
21721;SDS011;11023;48.274;7.794;2023-06-10T03:19:43;7.30;;;4.72;;
21721;SDS011;11023;48.274;7.794;2023-06-10T03:22:13;6.22;;;5.40;;
21721;SDS011;11023;48.274;7.794;2023-06-10T03:24:39;8.40;;;5.20;;
21721;SDS011;11023;48.274;7.794;2023-06-10T03:27:09;6.25;;;5.45;;
21721;SDS011;11023;48.274;7.794;2023-06-10T03:29:39;5.47;;;4.93;;
21721;SDS011;11023;48.274;7.794;2023-06-10T03:32:05;6.05;;;5.00;;
21721;SDS011;11023;48.274;7.794;2023-06-10T03:34:31;6.03;;;5.30;;
21721;SDS011;11023;48.274;7.794;2023-06-10T03:36:57;7.90;;;5.13;;
21721;SDS011;11023;48.274;7.794;2023-06-10T03:39:23;8.88;;;6.03;;
21721;SDS011;11023;48.274;7.794;2023-06-10T03:41:49;6.03;;;5.18;;
21721;SDS011;11023;48.274;7.794;2023-06-10T03:44:15;7.32;;;5.47;;
21721;SDS011;11023;48.274;7.794;2023-06-10T03:46:41;6.40;;;5.78;;
21721;SDS011;11023;48.274;7.794;2023-06-10T03:49:07;6.13;;;5.20;;
21721;SDS011;11023;48.274;7.794;2023-06-10T03:51:35;6.43;;;5.43;;
21721;SDS011;11023;48.274;7.794;2023-06-10T03:54:01;5.90;;;5.30;;
21721;SDS011;11023;48.274;7.794;2023-06-10T03:56:27;8.18;;;5.90;;
21721;SDS011;11023;48.274;7.794;2023-06-10T03:58:53;8.77;;;6.32;;
21721;SDS011;11023;48.274;7.794;2023-06-10T04:01:20;9.13;;;7.13;;
21721;SDS011;11023;48.274;7.794;2023-06-10T04:03:46;8.70;;;6.18;;
21721;SDS011;11023;48.274;7.794;2023-06-10T04:06:14;7.85;;;6.28;;
21721;SDS011;11023;48.274;7.794;2023-06-10T04:08:40;11.23;;;7.18;;
21721;SDS011;11023;48.274;7.794;2023-06-10T04:11:06;10.55;;;7.70;;
21721;SDS011;11023;48.274;7.794;2023-06-10T04:13:32;13.02;;;6.97;;
21721;SDS011;11023;48.274;7.794;2023-06-10T04:15:57;11.35;;;7.20;;
21721;SDS011;11023;48.274;7.794;2023-06-10T04:18:23;9.40;;;6.78;;
21721;SDS011;11023;48.274;7.794;2023-06-10T04:20:49;9.65;;;7.18;;
21721;SDS011;11023;48.274;7.794;2023-06-10T04:23:15;8.05;;;5.88;;
21721;SDS011;11023;48.274;7.794;2023-06-10T04:25:40;12.93;;;7.53;;
21721;SDS011;11023;48.274;7.794;2023-06-10T04:28:06;8.57;;;7.68;;
21721;SDS011;11023;48.274;7.794;2023-06-10T04:30:32;7.35;;;6.25;;
21721;SDS011;11023;48.274;7.794;2023-06-10T04:32:58;8.65;;;6.97;;
21721;SDS011;11023;48.274;7.794;2023-06-10T04:35:24;10.35;;;7.72;;
21721;SDS011;11023;48.274;7.794;2023-06-10T04:37:52;11.60;;;7.35;;
21721;SDS011;11023;48.274;7.794;2023-06-10T04:40:18;7.90;;;6.93;;
21721;SDS011;11023;48.274;7.794;2023-06-10T04:42:44;11.07;;;7.30;;
21721;SDS011;11023;48.274;7.794;2023-06-10T04:45:10;9.63;;;7.18;;
21721;SDS011;11023;48.274;7.794;2023-06-10T04:47:36;11.52;;;7.20;;
21721;SDS011;11023;48.274;7.794;2023-06-10T04:50:02;8.32;;;6.75;;
21721;SDS011;11023;48.274;7.794;2023-06-10T04:52:29;8.02;;;6.90;;
21721;SDS011;11023;48.274;7.794;2023-06-10T04:54:55;13.25;;;7.13;;
21721;SDS011;11023;48.274;7.794;2023-06-10T04:57:21;9.05;;;6.57;;
21721;SDS011;11023;48.274;7.794;2023-06-10T04:59:47;10.25;;;7.57;;
21721;SDS011;11023;48.274;7.794;2023-06-10T05:02:13;7.65;;;6.60;;
21721;SDS011;11023;48.274;7.794;2023-06-10T05:04:38;8.13;;;6.50;;
21721;SDS011;11023;48.274;7.794;2023-06-10T05:07:04;9.52;;;7.55;;
21721;SDS011;11023;48.274;7.794;2023-06-10T05:09:30;10.80;;;8.57;;
21721;SDS011;11023;48.274;7.794;2023-06-10T05:11:56;10.68;;;8.38;;
21721;SDS011;11023;48.274;7.794;2023-06-10T05:14:22;13.02;;;8.48;;
21721;SDS011;11023;48.274;7.794;2023-06-10T05:16:49;8.40;;;7.60;;
21721;SDS011;11023;48.274;7.794;2023-06-10T05:19:14;11.38;;;9.52;;
21721;SDS011;11023;48.274;7.794;2023-06-10T05:21:44;10.68;;;8.52;;
21721;SDS011;11023;48.274;7.794;2023-06-10T05:24:10;9.85;;;8.85;;
21721;SDS011;11023;48.274;7.794;2023-06-10T05:26:36;9.60;;;8.60;;
21721;SDS011;11023;48.274;7.794;2023-06-10T05:29:06;9.65;;;8.70;;
21721;SDS011;11023;48.274;7.794;2023-06-10T05:31:33;11.77;;;8.80;;
21721;SDS011;11023;48.274;7.794;2023-06-10T05:33:58;8.45;;;7.55;;
21721;SDS011;11023;48.274;7.794;2023-06-10T05:36:24;11.68;;;8.60;;
21721;SDS011;11023;48.274;7.794;2023-06-10T05:38:52;10.38;;;9.00;;
21721;SDS011;11023;48.274;7.794;2023-06-10T05:41:18;11.23;;;8.50;;
21721;SDS011;11023;48.274;7.794;2023-06-10T05:43:43;9.65;;;8.18;;
21721;SDS011;11023;48.274;7.794;2023-06-10T05:46:09;11.75;;;8.25;;
21721;SDS011;11023;48.274;7.794;2023-06-10T05:48:35;10.90;;;8.02;;
21721;SDS011;11023;48.274;7.794;2023-06-10T05:51:01;8.30;;;7.50;;
21721;SDS011;11023;48.274;7.794;2023-06-10T05:53:26;9.55;;;7.95;;
21721;SDS011;11023;48.274;7.794;2023-06-10T05:55:52;9.73;;;7.65;;
21721;SDS011;11023;48.274;7.794;2023-06-10T05:58:22;9.27;;;7.93;;
21721;SDS011;11023;48.274;7.794;2023-06-10T06:00:48;8.95;;;7.45;;
21721;SDS011;11023;48.274;7.794;2023-06-10T06:03:13;9.38;;;7.82;;
21721;SDS011;11023;48.274;7.794;2023-06-10T06:05:39;8.98;;;7.80;;
21721;SDS011;11023;48.274;7.794;2023-06-10T06:08:05;11.07;;;8.10;;
21721;SDS011;11023;48.274;7.794;2023-06-10T06:10:31;8.40;;;7.50;;
21721;SDS011;11023;48.274;7.794;2023-06-10T06:12:57;9.20;;;8.20;;
21721;SDS011;11023;48.274;7.794;2023-06-10T06:15:23;9.75;;;8.02;;
21721;SDS011;11023;48.274;7.794;2023-06-10T06:17:49;7.75;;;7.05;;
21721;SDS011;11023;48.274;7.794;2023-06-10T06:20:17;8.00;;;7.20;;
21721;SDS011;11023;48.274;7.794;2023-06-10T06:22:44;8.23;;;7.30;;
21721;SDS011;11023;48.274;7.794;2023-06-10T06:25:09;9.07;;;7.80;;
21721;SDS011;11023;48.274;7.794;2023-06-10T06:27:35;10.05;;;7.63;;
21721;SDS011;11023;48.274;7.794;2023-06-10T06:30:01;9.13;;;7.95;;
21721;SDS011;11023;48.274;7.794;2023-06-10T06:32:26;10.55;;;8.00;;
21721;SDS011;11023;48.274;7.794;2023-06-10T06:34:52;12.20;;;8.43;;
21721;SDS011;11023;48.274;7.794;2023-06-10T06:37:22;10.93;;;7.78;;
21721;SDS011;11023;48.274;7.794;2023-06-10T06:39:50;11.25;;;7.95;;
21721;SDS011;11023;48.274;7.794;2023-06-10T06:42:16;8.50;;;7.53;;
21721;SDS011;11023;48.274;7.794;2023-06-10T06:44:42;10.23;;;7.55;;
21721;SDS011;11023;48.274;7.794;2023-06-10T06:47:08;10.88;;;7.28;;
21721;SDS011;11023;48.274;7.794;2023-06-10T06:49:34;9.25;;;6.82;;
21721;SDS011;11023;48.274;7.794;2023-06-10T06:52:00;8.05;;;6.80;;
21721;SDS011;11023;48.274;7.794;2023-06-10T06:54:26;9.90;;;7.30;;
21721;SDS011;11023;48.274;7.794;2023-06-10T06:56:52;8.13;;;6.97;;
21721;SDS011;11023;48.274;7.794;2023-06-10T06:59:17;7.78;;;6.68;;
21721;SDS011;11023;48.274;7.794;2023-06-10T07:01:44;8.30;;;6.93;;
21721;SDS011;11023;48.274;7.794;2023-06-10T07:04:11;9.82;;;6.88;;
21721;SDS011;11023;48.274;7.794;2023-06-10T07:06:36;8.82;;;6.63;;
21721;SDS011;11023;48.274;7.794;2023-06-10T07:09:03;10.38;;;6.50;;
21721;SDS011;11023;48.274;7.794;2023-06-10T07:11:29;8.25;;;7.00;;
21721;SDS011;11023;48.274;7.794;2023-06-10T07:13:55;9.50;;;6.35;;
21721;SDS011;11023;48.274;7.794;2023-06-10T07:16:21;9.60;;;6.38;;
21721;SDS011;11023;48.274;7.794;2023-06-10T07:18:47;11.15;;;6.90;;
21721;SDS011;11023;48.274;7.794;2023-06-10T07:21:13;11.07;;;7.70;;
21721;SDS011;11023;48.274;7.794;2023-06-10T07:23:42;8.32;;;6.65;;
21721;SDS011;11023;48.274;7.794;2023-06-10T07:26:08;7.28;;;6.60;;
21721;SDS011;11023;48.274;7.794;2023-06-10T07:28:36;9.30;;;7.18;;
21721;SDS011;11023;48.274;7.794;2023-06-10T07:31:02;8.52;;;6.57;;
21721;SDS011;11023;48.274;7.794;2023-06-10T07:33:28;10.52;;;7.10;;
21721;SDS011;11023;48.274;7.794;2023-06-10T07:35:54;8.15;;;6.68;;
21721;SDS011;11023;48.274;7.794;2023-06-10T07:38:20;8.98;;;6.55;;
21721;SDS011;11023;48.274;7.794;2023-06-10T07:40:46;7.20;;;6.28;;
21721;SDS011;11023;48.274;7.794;2023-06-10T07:43:12;10.45;;;7.00;;
21721;SDS011;11023;48.274;7.794;2023-06-10T07:45:40;7.70;;;6.90;;
21721;SDS011;11023;48.274;7.794;2023-06-10T07:48:06;7.47;;;6.78;;
21721;SDS011;11023;48.274;7.794;2023-06-10T07:50:32;7.65;;;6.63;;
21721;SDS011;11023;48.274;7.794;2023-06-10T07:52:58;8.43;;;7.47;;
21721;SDS011;11023;48.274;7.794;2023-06-10T07:55:24;8.85;;;7.40;;
21721;SDS011;11023;48.274;7.794;2023-06-10T07:57:51;9.73;;;7.20;;
21721;SDS011;11023;48.274;7.794;2023-06-10T08:00:17;9.15;;;7.60;;
21721;SDS011;11023;48.274;7.794;2023-06-10T08:02:43;10.90;;;7.47;;
21721;SDS011;11023;48.274;7.794;2023-06-10T08:05:10;9.48;;;8.07;;
21721;SDS011;11023;48.274;7.794;2023-06-10T08:07:36;10.88;;;7.53;;
21721;SDS011;11023;48.274;7.794;2023-06-10T08:10:02;9.02;;;7.18;;
21721;SDS011;11023;48.274;7.794;2023-06-10T08:12:29;11.48;;;7.68;;
21721;SDS011;11023;48.274;7.794;2023-06-10T08:14:55;9.13;;;7.40;;
21721;SDS011;11023;48.274;7.794;2023-06-10T08:17:20;9.10;;;7.75;;
21721;SDS011;11023;48.274;7.794;2023-06-10T08:19:46;8.88;;;8.02;;
21721;SDS011;11023;48.274;7.794;2023-06-10T08:22:12;8.18;;;7.38;;
21721;SDS011;11023;48.274;7.794;2023-06-10T08:24:37;8.75;;;7.70;;
21721;SDS011;11023;48.274;7.794;2023-06-10T08:27:03;9.65;;;7.63;;
21721;SDS011;11023;48.274;7.794;2023-06-10T08:29:30;8.68;;;7.88;;
21721;SDS011;11023;48.274;7.794;2023-06-10T08:31:56;11.43;;;8.10;;
21721;SDS011;11023;48.274;7.794;2023-06-10T08:34:22;10.45;;;7.43;;
21721;SDS011;11023;48.274;7.794;2023-06-10T08:36:48;11.80;;;7.80;;
21721;SDS011;11023;48.274;7.794;2023-06-10T08:39:18;9.13;;;7.28;;
21721;SDS011;11023;48.274;7.794;2023-06-10T08:41:44;9.15;;;7.15;;
21721;SDS011;11023;48.274;7.794;2023-06-10T08:44:17;8.27;;;7.10;;
21721;SDS011;11023;48.274;7.794;2023-06-10T08:46:52;7.40;;;6.50;;
21721;SDS011;11023;48.274;7.794;2023-06-10T08:49:20;9.23;;;6.97;;
21721;SDS011;11023;48.274;7.794;2023-06-10T08:51:58;11.25;;;7.43;;
21721;SDS011;11023;48.274;7.794;2023-06-10T08:54:27;9.48;;;7.45;;
21721;SDS011;11023;48.274;7.794;2023-06-10T08:56:56;8.90;;;7.35;;
21721;SDS011;11023;48.274;7.794;2023-06-10T08:59:24;8.15;;;7.32;;
21721;SDS011;11023;48.274;7.794;2023-06-10T09:01:51;10.90;;;7.47;;
21721;SDS011;11023;48.274;7.794;2023-06-10T09:04:18;11.02;;;7.07;;
21721;SDS011;11023;48.274;7.794;2023-06-10T09:06:45;11.55;;;7.25;;
21721;SDS011;11023;48.274;7.794;2023-06-10T09:09:11;10.80;;;7.15;;
21721;SDS011;11023;48.274;7.794;2023-06-10T09:11:40;7.93;;;7.13;;
21721;SDS011;11023;48.274;7.794;2023-06-10T09:14:09;10.98;;;7.38;;
21721;SDS011;11023;48.274;7.794;2023-06-10T09:16:37;10.27;;;7.03;;
21721;SDS011;11023;48.274;7.794;2023-06-10T09:19:03;14.38;;;7.75;;
21721;SDS011;11023;48.274;7.794;2023-06-10T09:21:33;9.20;;;7.22;;
21721;SDS011;11023;48.274;7.794;2023-06-10T09:23:59;8.73;;;7.28;;
21721;SDS011;11023;48.274;7.794;2023-06-10T09:26:28;8.43;;;6.80;;
21721;SDS011;11023;48.274;7.794;2023-06-10T09:29:03;9.48;;;7.10;;
21721;SDS011;11023;48.274;7.794;2023-06-10T09:31:30;7.78;;;6.97;;
21721;SDS011;11023;48.274;7.794;2023-06-10T09:36:32;9.27;;;7.25;;
21721;SDS011;11023;48.274;7.794;2023-06-10T09:38:59;8.05;;;6.93;;
21721;SDS011;11023;48.274;7.794;2023-06-10T09:44:20;8.88;;;6.95;;
21721;SDS011;11023;48.274;7.794;2023-06-10T09:46:47;9.05;;;7.15;;
21721;SDS011;11023;48.274;7.794;2023-06-10T09:49:15;9.57;;;7.43;;
21721;SDS011;11023;48.274;7.794;2023-06-10T09:51:51;8.57;;;6.88;;
21721;SDS011;11023;48.274;7.794;2023-06-10T09:54:18;10.88;;;7.47;;
21721;SDS011;11023;48.274;7.794;2023-06-10T09:56:46;8.07;;;7.13;;
21721;SDS011;11023;48.274;7.794;2023-06-10T09:59:13;11.45;;;7.32;;
21721;SDS011;11023;48.274;7.794;2023-06-10T10:01:38;10.13;;;6.95;;
21721;SDS011;11023;48.274;7.794;2023-06-10T10:04:04;10.68;;;7.28;;
21721;SDS011;11023;48.274;7.794;2023-06-10T10:06:30;9.20;;;7.32;;
21721;SDS011;11023;48.274;7.794;2023-06-10T10:08:56;10.75;;;6.88;;
21721;SDS011;11023;48.274;7.794;2023-06-10T10:11:22;8.15;;;7.20;;
21721;SDS011;11023;48.274;7.794;2023-06-10T10:13:49;8.20;;;7.22;;
21721;SDS011;11023;48.274;7.794;2023-06-10T10:16:19;8.07;;;7.28;;
21721;SDS011;11023;48.274;7.794;2023-06-10T10:18:58;10.40;;;7.10;;
21721;SDS011;11023;48.274;7.794;2023-06-10T10:21:30;10.60;;;6.95;;
21721;SDS011;11023;48.274;7.794;2023-06-10T10:24:05;9.23;;;7.50;;
21721;SDS011;11023;48.274;7.794;2023-06-10T10:26:33;8.20;;;7.40;;
21721;SDS011;11023;48.274;7.794;2023-06-10T10:31:53;7.95;;;7.03;;
21721;SDS011;11023;48.274;7.794;2023-06-10T10:34:27;7.53;;;6.60;;
21721;SDS011;11023;48.274;7.794;2023-06-10T10:36:57;10.43;;;6.63;;
21721;SDS011;11023;48.274;7.794;2023-06-10T10:39:23;8.57;;;6.80;;
21721;SDS011;11023;48.274;7.794;2023-06-10T10:41:49;8.23;;;6.05;;
21721;SDS011;11023;48.274;7.794;2023-06-10T10:44:16;8.90;;;6.72;;
21721;SDS011;11023;48.274;7.794;2023-06-10T10:46:43;7.45;;;6.57;;
21721;SDS011;11023;48.274;7.794;2023-06-10T10:49:10;6.70;;;6.10;;
21721;SDS011;11023;48.274;7.794;2023-06-10T10:51:43;8.82;;;6.70;;
21721;SDS011;11023;48.274;7.794;2023-06-10T10:54:21;6.85;;;6.15;;
21721;SDS011;11023;48.274;7.794;2023-06-10T10:57:10;7.80;;;6.40;;
21721;SDS011;11023;48.274;7.794;2023-06-10T11:02:32;9.80;;;6.35;;
21721;SDS011;11023;48.274;7.794;2023-06-10T11:04:57;6.90;;;6.30;;
21721;SDS011;11023;48.274;7.794;2023-06-10T11:07:24;7.28;;;6.28;;
21721;SDS011;11023;48.274;7.794;2023-06-10T11:10:01;7.65;;;5.63;;
21721;SDS011;11023;48.274;7.794;2023-06-10T11:15:11;6.93;;;5.90;;
21721;SDS011;11023;48.274;7.794;2023-06-10T11:17:59;6.55;;;5.85;;
21721;SDS011;11023;48.274;7.794;2023-06-10T11:20:45;9.98;;;5.55;;
21721;SDS011;11023;48.274;7.794;2023-06-10T11:26:14;6.40;;;5.30;;
21721;SDS011;11023;48.274;7.794;2023-06-10T11:31:27;9.48;;;5.55;;
21721;SDS011;11023;48.274;7.794;2023-06-10T11:34:12;6.13;;;5.60;;
21721;SDS011;11023;48.274;7.794;2023-06-10T11:36:42;7.38;;;5.57;;
21721;SDS011;11023;48.274;7.794;2023-06-10T11:39:10;6.95;;;5.35;;
21721;SDS011;11023;48.274;7.794;2023-06-10T11:41:37;7.00;;;5.15;;
21721;SDS011;11023;48.274;7.794;2023-06-10T11:44:06;8.98;;;5.78;;
21721;SDS011;11023;48.274;7.794;2023-06-10T11:46:34;5.85;;;5.18;;
21721;SDS011;11023;48.274;7.794;2023-06-10T11:49:01;6.85;;;5.43;;
21721;SDS011;11023;48.274;7.794;2023-06-10T11:51:28;6.18;;;5.28;;
21721;SDS011;11023;48.274;7.794;2023-06-10T11:53:59;5.88;;;5.38;;
21721;SDS011;11023;48.274;7.794;2023-06-10T11:56:26;5.50;;;5.03;;
21721;SDS011;11023;48.274;7.794;2023-06-10T11:59:00;9.40;;;5.65;;
21721;SDS011;11023;48.274;7.794;2023-06-10T12:01:35;5.25;;;4.75;;
21721;SDS011;11023;48.274;7.794;2023-06-10T12:06:41;6.15;;;4.88;;
21721;SDS011;11023;48.274;7.794;2023-06-10T12:09:29;4.70;;;4.30;;
21721;SDS011;11023;48.274;7.794;2023-06-10T12:11:58;6.38;;;4.68;;
21721;SDS011;11023;48.274;7.794;2023-06-10T12:15:10;8.13;;;4.78;;
21721;SDS011;11023;48.274;7.794;2023-06-10T12:20:00;4.57;;;4.18;;
21721;SDS011;11023;48.274;7.794;2023-06-10T12:22:26;6.07;;;4.03;;
21721;SDS011;11023;48.274;7.794;2023-06-10T12:25:02;4.63;;;4.18;;
21721;SDS011;11023;48.274;7.794;2023-06-10T12:27:29;5.15;;;3.83;;
21721;SDS011;11023;48.274;7.794;2023-06-10T12:29:56;4.85;;;4.28;;
21721;SDS011;11023;48.274;7.794;2023-06-10T12:32:35;4.40;;;4.00;;
21721;SDS011;11023;48.274;7.794;2023-06-10T12:35:03;6.18;;;4.57;;
21721;SDS011;11023;48.274;7.794;2023-06-10T12:37:30;10.90;;;4.60;;
21721;SDS011;11023;48.274;7.794;2023-06-10T12:39:59;5.10;;;4.60;;
21721;SDS011;11023;48.274;7.794;2023-06-10T12:42:26;4.97;;;4.47;;
21721;SDS011;11023;48.274;7.794;2023-06-10T12:44:55;6.60;;;3.85;;
21721;SDS011;11023;48.274;7.794;2023-06-10T12:47:32;5.65;;;4.15;;
21721;SDS011;11023;48.274;7.794;2023-06-10T12:50:04;4.70;;;4.05;;
21721;SDS011;11023;48.274;7.794;2023-06-10T12:52:30;4.45;;;4.03;;
21721;SDS011;11023;48.274;7.794;2023-06-10T12:54:56;5.18;;;4.47;;
21721;SDS011;11023;48.274;7.794;2023-06-10T12:57:22;4.15;;;3.85;;
21721;SDS011;11023;48.274;7.794;2023-06-10T12:59:48;4.88;;;3.90;;
21721;SDS011;11023;48.274;7.794;2023-06-10T13:02:25;4.40;;;4.00;;
21721;SDS011;11023;48.274;7.794;2023-06-10T13:04:51;4.85;;;4.05;;
21721;SDS011;11023;48.274;7.794;2023-06-10T13:07:17;3.50;;;3.20;;
21721;SDS011;11023;48.274;7.794;2023-06-10T13:09:42;3.85;;;3.55;;
21721;SDS011;11023;48.274;7.794;2023-06-10T13:12:09;4.07;;;3.00;;
21721;SDS011;11023;48.274;7.794;2023-06-10T13:14:35;3.92;;;3.40;;
21721;SDS011;11023;48.274;7.794;2023-06-10T13:17:02;3.85;;;3.47;;
21721;SDS011;11023;48.274;7.794;2023-06-10T13:19:30;4.32;;;3.10;;
21721;SDS011;11023;48.274;7.794;2023-06-10T13:21:57;3.83;;;3.30;;
21721;SDS011;11023;48.274;7.794;2023-06-10T13:24:22;3.45;;;3.25;;
21721;SDS011;11023;48.274;7.794;2023-06-10T13:26:48;6.25;;;3.40;;
21721;SDS011;11023;48.274;7.794;2023-06-10T13:29:14;8.43;;;4.80;;
21721;SDS011;11023;48.274;7.794;2023-06-10T13:31:40;4.93;;;3.20;;
21721;SDS011;11023;48.274;7.794;2023-06-10T13:34:06;3.30;;;3.00;;
21721;SDS011;11023;48.274;7.794;2023-06-10T13:36:32;4.45;;;3.25;;
21721;SDS011;11023;48.274;7.794;2023-06-10T13:38:58;5.13;;;3.30;;
21721;SDS011;11023;48.274;7.794;2023-06-10T13:41:23;3.03;;;2.83;;
21721;SDS011;11023;48.274;7.794;2023-06-10T13:43:49;3.50;;;3.22;;
21721;SDS011;11023;48.274;7.794;2023-06-10T13:46:15;3.00;;;2.80;;
21721;SDS011;11023;48.274;7.794;2023-06-10T13:48:41;3.42;;;3.13;;
21721;SDS011;11023;48.274;7.794;2023-06-10T13:51:07;3.92;;;2.92;;
21721;SDS011;11023;48.274;7.794;2023-06-10T13:53:34;4.03;;;3.28;;
21721;SDS011;11023;48.274;7.794;2023-06-10T13:56:00;3.40;;;3.10;;
21721;SDS011;11023;48.274;7.794;2023-06-10T13:58:25;3.38;;;3.00;;
21721;SDS011;11023;48.274;7.794;2023-06-10T14:00:51;3.30;;;2.80;;
21721;SDS011;11023;48.274;7.794;2023-06-10T14:03:18;3.03;;;2.83;;
21721;SDS011;11023;48.274;7.794;2023-06-10T14:05:43;3.75;;;3.03;;
21721;SDS011;11023;48.274;7.794;2023-06-10T14:08:09;3.20;;;2.90;;
21721;SDS011;11023;48.274;7.794;2023-06-10T14:10:35;3.20;;;3.00;;
21721;SDS011;11023;48.274;7.794;2023-06-10T14:13:00;3.33;;;3.03;;
21721;SDS011;11023;48.274;7.794;2023-06-10T14:15:26;5.72;;;4.13;;
21721;SDS011;11023;48.274;7.794;2023-06-10T14:17:52;3.42;;;3.13;;
21721;SDS011;11023;48.274;7.794;2023-06-10T14:20:17;3.67;;;3.38;;
21721;SDS011;11023;48.274;7.794;2023-06-10T14:22:43;3.10;;;2.80;;
21721;SDS011;11023;48.274;7.794;2023-06-10T14:25:09;3.00;;;2.80;;
21721;SDS011;11023;48.274;7.794;2023-06-10T14:27:36;3.20;;;2.90;;
21721;SDS011;11023;48.274;7.794;2023-06-10T14:32:31;2.70;;;2.50;;
21721;SDS011;11023;48.274;7.794;2023-06-10T14:34:57;2.97;;;2.75;;
21721;SDS011;11023;48.274;7.794;2023-06-10T14:37:23;3.10;;;2.90;;
21721;SDS011;11023;48.274;7.794;2023-06-10T14:39:49;3.20;;;2.90;;
21721;SDS011;11023;48.274;7.794;2023-06-10T14:42:15;2.80;;;2.60;;
21721;SDS011;11023;48.274;7.794;2023-06-10T14:44:40;3.08;;;2.85;;
21721;SDS011;11023;48.274;7.794;2023-06-10T14:47:06;3.10;;;2.90;;
21721;SDS011;11023;48.274;7.794;2023-06-10T14:49:32;3.47;;;3.17;;
21721;SDS011;11023;48.274;7.794;2023-06-10T14:51:57;4.70;;;3.40;;
21721;SDS011;11023;48.274;7.794;2023-06-10T14:54:23;5.28;;;3.30;;
21721;SDS011;11023;48.274;7.794;2023-06-10T14:56:49;4.32;;;3.28;;
21721;SDS011;11023;48.274;7.794;2023-06-10T14:59:15;4.45;;;3.40;;
21721;SDS011;11023;48.274;7.794;2023-06-10T15:01:40;4.18;;;3.83;;
21721;SDS011;11023;48.274;7.794;2023-06-10T15:04:06;4.15;;;3.47;;
21721;SDS011;11023;48.274;7.794;2023-06-10T15:06:32;3.85;;;3.53;;
21721;SDS011;11023;48.274;7.794;2023-06-10T15:08:57;5.65;;;3.58;;
21721;SDS011;11023;48.274;7.794;2023-06-10T15:11:23;3.85;;;3.50;;
21721;SDS011;11023;48.274;7.794;2023-06-10T15:13:48;6.22;;;3.30;;
21721;SDS011;11023;48.274;7.794;2023-06-10T15:16:14;4.38;;;3.42;;
21721;SDS011;11023;48.274;7.794;2023-06-10T15:18:40;4.72;;;3.83;;
21721;SDS011;11023;48.274;7.794;2023-06-10T15:21:06;3.97;;;3.55;;